Time;durP1;ratioP1;P1;durP2;ratioP2;P2;SDS_P1;SDS_P2;PMS_P1;PMS_P2;Temp;Humidity;BMP_temperature;BMP_pressure;BME280_temperature;BME280_humidity;BME280_pressure;Samples;Min_cycle;Max_cycle;Signal;HPM_P1;HPM_P2
2022/03/10 00:00:09;;;;;;;4.68;1.23;;;21.90;97.20;;;;;;5060211;28;20471;-64
2022/03/10 00:02:36;;;;;;;3.65;1.23;;;21.90;97.50;;;;;;5055109;28;20425;-68
2022/03/10 00:05:03;;;;;;;5.65;1.40;;;21.90;97.50;;;;;;5053788;28;20035;-64
2022/03/10 00:07:30;;;;;;;5.32;1.38;;;22.20;97.00;;;;;;5054267;28;20032;-67
2022/03/10 00:09:57;;;;;;;2.97;1.42;;;22.60;97.20;;;;;;5057733;28;20028;-67
2022/03/10 00:12:24;;;;;;;3.90;1.60;;;22.50;96.00;;;;;;5051754;28;20466;-66
2022/03/10 00:14:51;;;;;;;6.43;1.27;;;22.50;96.60;;;;;;5054219;28;20023;-65
2022/03/10 00:17:18;;;;;;;3.03;1.17;;;22.40;96.10;;;;;;5055602;28;20336;-67
2022/03/10 00:19:45;;;;;;;4.53;1.90;;;22.30;96.00;;;;;;5055376;28;20486;-64
2022/03/10 00:22:12;;;;;;;3.83;1.15;;;22.20;96.90;;;;;;5057082;28;20492;-65
2022/03/10 00:24:39;;;;;;;5.05;1.27;;;22.20;96.50;;;;;;5056979;28;20032;-64
2022/03/10 00:27:06;;;;;;;3.15;1.35;;;22.30;96.30;;;;;;5052223;28;20037;-66
2022/03/10 00:29:34;;;;;;;4.65;1.05;;;22.30;96.40;;;;;;5056698;28;20028;-66
2022/03/10 00:32:01;;;;;;;7.90;1.48;;;22.50;96.10;;;;;;5055346;28;20479;-70
2022/03/10 00:34:30;;;;;;;3.55;1.10;;;22.50;95.60;;;;;;5053924;28;20481;-67
2022/03/10 00:36:57;;;;;;;3.53;0.95;;;22.50;96.00;;;;;;5051650;28;20112;-67
2022/03/10 00:39:24;;;;;;;4.32;1.65;;;22.70;95.20;;;;;;5053129;28;20063;-67
2022/03/10 00:41:51;;;;;;;6.78;0.95;;;22.80;94.40;;;;;;5037087;28;20166;-66
2022/03/10 00:44:18;;;;;;;4.65;1.15;;;22.90;94.80;;;;;;5054097;28;20036;-71
2022/03/10 00:46:45;;;;;;;4.22;1.17;;;22.90;94.90;;;;;;5053694;28;20062;-66
2022/03/10 00:49:11;;;;;;;2.63;1.10;;;22.80;94.40;;;;;;5055382;28;20024;-66
2022/03/10 00:51:38;;;;;;;3.35;0.90;;;22.90;95.30;;;;;;5052891;28;20025;-67
2022/03/10 00:54:05;;;;;;;3.60;1.15;;;23.30;94.90;;;;;;5055136;28;20029;-65
2022/03/10 00:56:32;;;;;;;4.85;1.83;;;23.50;94.40;;;;;;5054080;28;20021;-66
2022/03/10 00:58:59;;;;;;;2.47;1.25;;;23.40;94.50;;;;;;5055446;28;20028;-68
2022/03/10 01:01:26;;;;;;;3.20;1.08;;;23.50;94.40;;;;;;5056774;28;20021;-68
2022/03/10 01:03:53;;;;;;;5.75;1.30;;;23.60;94.10;;;;;;5054777;28;20033;-67
2022/03/10 01:06:20;;;;;;;2.97;1.35;;;23.60;93.30;;;;;;5053611;28;20021;-65
2022/03/10 01:08:47;;;;;;;5.45;1.48;;;23.50;93.50;;;;;;5057400;28;20415;-66
2022/03/10 01:11:17;;;;;;;3.90;1.15;;;23.70;93.80;;;;;;5052325;28;20485;-69
2022/03/10 01:13:44;;;;;;;4.68;1.45;;;23.90;93.20;;;;;;5053145;28;20020;-66
2022/03/10 01:16:11;;;;;;;5.45;2.00;;;24.20;93.00;;;;;;5054945;28;20395;-68
2022/03/10 01:18:38;;;;;;;3.45;1.40;;;24.40;92.80;;;;;;5053669;28;20519;-67
2022/03/10 01:21:05;;;;;;;5.22;1.38;;;24.20;92.50;;;;;;5055132;28;20045;-69
2022/03/10 01:23:32;;;;;;;4.88;0.82;;;24.10;92.30;;;;;;5054781;28;20098;-65
2022/03/10 01:25:59;;;;;;;2.17;0.82;;;24.10;91.70;;;;;;5055868;28;20032;-66
2022/03/10 01:28:25;;;;;;;5.03;1.20;;;24.40;93.20;;;;;;5053371;28;20069;-65
2022/03/10 01:30:52;;;;;;;4.88;1.17;;;24.60;92.60;;;;;;5053258;28;20025;-67
2022/03/10 01:33:19;;;;;;;4.80;1.27;;;24.70;91.80;;;;;;5052499;28;20021;-67
2022/03/10 01:35:46;;;;;;;3.90;1.30;;;24.80;91.40;;;;;;5051280;28;20167;-68
2022/03/10 01:38:13;;;;;;;4.07;1.05;;;25.00;92.30;;;;;;5056395;28;20052;-68
2022/03/10 01:40:40;;;;;;;5.40;1.20;;;25.30;91.70;;;;;;5055092;28;20094;-67
2022/03/10 01:43:07;;;;;;;2.80;1.30;;;25.40;89.80;;;;;;5051500;28;20024;-69
2022/03/10 01:45:34;;;;;;;4.18;1.42;;;25.40;90.80;;;;;;5054583;28;20116;-69
2022/03/10 01:48:01;;;;;;;6.55;3.22;;;25.40;90.50;;;;;;5055227;28;20036;-68
2022/03/10 01:50:28;;;;;;;7.15;2.08;;;25.20;90.20;;;;;;5053021;28;20056;-69
2022/03/10 01:52:55;;;;;;;3.38;1.38;;;25.10;90.80;;;;;;5053600;28;20094;-69
2022/03/10 01:55:23;;;;;;;2.95;1.10;;;25.10;90.30;;;;;;5053888;28;20024;-68
2022/03/10 01:57:50;;;;;;;7.10;1.67;;;25.40;90.70;;;;;;5055479;28;20446;-67
2022/03/10 02:00:18;;;;;;;4.43;1.55;;;25.40;89.10;;;;;;5056517;28;20024;-66
2022/03/10 02:02:45;;;;;;;3.10;1.55;;;25.00;91.50;;;;;;5054750;28;20055;-67
2022/03/10 02:05:12;;;;;;;7.93;1.63;;;25.30;91.40;;;;;;5055207;28;20033;-67
2022/03/10 02:10:28;;;;;;;3.03;1.23;;;25.50;90.20;;;;;;5055258;28;20442;-66
2022/03/10 02:12:56;;;;;;;4.60;1.13;;;25.20;88.90;;;;;;5054156;28;20025;-68
2022/03/10 02:18:14;;;;;;;4.90;1.23;;;25.60;87.40;;;;;;5052363;28;20042;-67
2022/03/10 02:20:42;;;;;;;3.25;1.33;;;25.80;88.60;;;;;;5050002;28;20589;-69
2022/03/10 02:23:11;;;;;;;3.63;1.30;;;25.90;88.60;;;;;;5052631;28;20029;-66
2022/03/10 02:25:39;;;;;;;5.75;1.23;;;25.70;86.50;;;;;;5055359;28;20120;-68
2022/03/10 02:28:07;;;;;;;3.30;1.35;;;25.60;87.00;;;;;;5054218;28;20087;-66
2022/03/10 02:30:35;;;;;;;5.18;1.20;;;25.50;89.10;;;;;;5053414;28;20050;-66
2022/03/10 02:33:03;;;;;;;4.55;1.20;;;25.60;88.20;;;;;;5055580;28;20109;-67
2022/03/10 02:35:30;;;;;;;5.80;1.45;;;25.90;85.40;;;;;;5057722;28;20048;-68
2022/03/10 02:37:57;;;;;;;2.60;0.90;;;26.00;83.80;;;;;;5056577;28;20522;-67
2022/03/10 02:40:25;;;;;;;4.72;1.25;;;26.10;86.40;;;;;;5062819;28;20060;-68
2022/03/10 02:42:53;;;;;;;5.65;1.52;;;26.10;86.00;;;;;;5069634;28;20035;-68
2022/03/10 02:45:20;;;;;;;5.65;1.92;;;26.30;87.50;;;;;;5059115;28;20159;-67
2022/03/10 02:47:48;;;;;;;4.78;1.63;;;26.20;85.00;;;;;;5065057;28;20078;-67
2022/03/10 02:50:19;;;;;;;5.95;1.25;;;26.20;87.90;;;;;;5066131;28;20025;-68
2022/03/10 02:52:46;;;;;;;4.05;1.25;;;26.30;85.90;;;;;;5039198;28;20509;-68
2022/03/10 02:55:14;;;;;;;4.13;1.10;;;26.30;84.80;;;;;;5064810;28;20115;-68
2022/03/10 02:57:41;;;;;;;5.28;1.15;;;26.40;86.20;;;;;;5061713;28;20031;-69
2022/03/10 03:00:08;;;;;;;4.07;0.93;;;26.60;85.00;;;;;;5062759;28;20535;-66
2022/03/10 03:02:36;;;;;;;4.25;1.20;;;26.80;85.60;;;;;;5067791;28;20063;-69
2022/03/10 03:05:04;;;;;;;4.85;1.20;;;27.00;85.50;;;;;;5069641;28;20200;-70
2022/03/10 03:07:31;;;;;;;2.92;1.13;;;27.20;82.80;;;;;;5062427;28;20032;-69
2022/03/10 03:09:58;;;;;;;5.18;1.05;;;27.60;83.90;;;;;;5058136;28;20021;-69
2022/03/10 03:12:25;;;;;;;4.85;1.10;;;27.60;81.60;;;;;;5070154;28;20032;-68
2022/03/10 03:14:54;;;;;;;3.42;1.10;;;27.20;82.10;;;;;;5057223;28;20473;-68
2022/03/10 03:17:21;;;;;;;6.53;1.25;;;26.90;83.20;;;;;;5066774;28;20028;-68
2022/03/10 03:19:48;;;;;;;3.95;1.33;;;26.60;83.40;;;;;;5065838;28;20056;-68
2022/03/10 03:22:15;;;;;;;3.88;1.30;;;26.20;84.80;;;;;;5067375;28;20021;-68
2022/03/10 03:24:42;;;;;;;6.72;1.45;;;26.30;84.00;;;;;;5068911;28;20024;-68
2022/03/10 03:27:09;;;;;;;4.15;1.27;;;26.60;84.70;;;;;;5068660;28;20048;-68
2022/03/10 03:29:36;;;;;;;7.22;3.53;;;27.10;84.80;;;;;;5060327;28;20020;-69
2022/03/10 03:32:03;;;;;;;4.38;1.67;;;27.30;82.70;;;;;;5056500;28;20662;-70
2022/03/10 03:34:31;;;;;;;5.13;1.30;;;27.00;83.90;;;;;;5061149;28;20807;-69
2022/03/10 03:36:58;;;;;;;3.25;1.33;;;27.00;85.20;;;;;;5058563;28;20717;-69
2022/03/10 03:39:25;;;;;;;3.05;1.30;;;27.10;83.00;;;;;;5062527;28;20250;-68
2022/03/10 03:41:52;;;;;;;4.07;1.25;;;27.10;83.40;;;;;;5061363;28;20467;-71
2022/03/10 03:44:19;;;;;;;4.85;1.85;;;27.40;82.60;;;;;;5069163;28;20482;-68
2022/03/10 03:46:46;;;;;;;6.45;1.40;;;27.80;82.60;;;;;;5065305;28;20032;-69
2022/03/10 03:49:13;;;;;;;4.82;1.85;;;28.00;83.00;;;;;;5060884;28;20511;-68
2022/03/10 03:51:40;;;;;;;6.95;2.50;;;28.20;80.80;;;;;;5056453;28;20032;-69
2022/03/10 03:54:07;;;;;;;5.20;1.10;;;27.80;82.60;;;;;;5053958;28;20025;-67
2022/03/10 03:56:37;;;;;;;3.97;1.30;;;27.50;80.00;;;;;;5055550;28;20017;-68
2022/03/10 03:59:04;;;;;;;2.75;1.13;;;27.30;81.90;;;;;;5038955;28;20794;-71
2022/03/10 04:01:32;;;;;;;3.08;1.08;;;27.60;82.80;;;;;;5036858;28;20109;-68
2022/03/10 04:03:59;;;;;;;4.90;1.10;;;27.90;82.70;;;;;;5058282;28;20028;-69
2022/03/10 04:06:26;;;;;;;3.13;1.05;;;28.00;80.20;;;;;;5054967;28;20073;-69
2022/03/10 04:08:53;;;;;;;4.55;1.15;;;28.00;78.30;;;;;;5055376;28;20382;-71
2022/03/10 04:11:20;;;;;;;4.05;1.55;;;27.90;81.30;;;;;;5059079;28;20024;-67
2022/03/10 04:13:47;;;;;;;4.15;1.27;;;28.00;80.10;;;;;;5055946;28;20032;-69
2022/03/10 04:16:14;;;;;;;4.10;1.20;;;28.10;80.40;;;;;;5058945;28;20044;-70
2022/03/10 04:18:41;;;;;;;3.45;0.93;;;28.60;81.70;;;;;;5057718;28;20020;-69
2022/03/10 04:21:08;;;;;;;5.13;1.38;;;28.70;77.80;;;;;;5053391;28;20044;-71
2022/03/10 04:23:35;;;;;;;4.30;1.55;;;28.90;78.40;;;;;;5055012;28;20032;-71
2022/03/10 04:26:02;;;;;;;2.20;1.08;;;29.00;79.00;;;;;;5055900;28;20024;-69
2022/03/10 04:28:29;;;;;;;3.22;1.30;;;28.90;77.40;;;;;;5058623;28;20086;-70
2022/03/10 04:30:56;;;;;;;4.65;1.65;;;28.30;79.50;;;;;;5054366;28;20399;-73
2022/03/10 04:33:23;;;;;;;6.03;1.23;;;27.90;79.30;;;;;;5053357;28;20467;-68
2022/03/10 04:35:51;;;;;;;5.50;1.42;;;27.60;80.60;;;;;;5053872;28;20036;-68
2022/03/10 04:38:19;;;;;;;5.20;1.67;;;27.10;80.10;;;;;;5055127;28;20045;-70
2022/03/10 04:40:47;;;;;;;4.15;1.50;;;27.20;82.90;;;;;;5060704;28;20425;-71
2022/03/10 04:43:14;;;;;;;5.38;1.92;;;28.00;79.70;;;;;;5057608;28;20434;-68
2022/03/10 04:45:41;;;;;;;5.50;1.75;;;28.80;77.70;;;;;;5055893;28;20024;-71
2022/03/10 04:48:09;;;;;;;6.47;2.10;;;29.00;77.70;;;;;;5053408;28;20567;-68
2022/03/10 04:50:36;;;;;;;9.25;2.00;;;28.70;79.70;;;;;;5060344;28;20408;-71
2022/03/10 04:53:03;;;;;;;5.72;1.95;;;28.30;80.60;;;;;;5057045;28;20032;-74
2022/03/10 04:55:30;;;;;;;4.75;1.80;;;27.80;83.70;;;;;;5061527;28;20024;-67
2022/03/10 04:57:57;;;;;;;4.97;1.73;;;28.10;83.60;;;;;;5063034;28;20053;-68
2022/03/10 05:00:24;;;;;;;8.65;2.30;;;27.80;82.60;;;;;;5060644;28;20089;-66
2022/03/10 05:02:51;;;;;;;9.43;1.90;;;27.50;81.50;;;;;;5062104;28;20435;-67
2022/03/10 05:05:19;;;;;;;6.53;2.10;;;26.50;83.70;;;;;;5054184;28;20025;-69
2022/03/10 05:07:46;;;;;;;6.57;1.70;;;26.00;84.60;;;;;;5058307;28;20458;-69
2022/03/10 05:10:14;;;;;;;9.02;2.45;;;26.30;85.00;;;;;;5057137;28;20510;-67
2022/03/10 05:12:50;;;;;;;7.32;1.80;;;26.80;84.50;;;;;;5062910;28;20333;-67
2022/03/10 05:15:22;;;;;;;6.53;2.08;;;27.20;84.90;;;;;;5054329;28;20032;-70
2022/03/10 05:17:51;;;;;;;7.15;3.00;;;27.50;81.80;;;;;;5057428;28;20599;-69
2022/03/10 05:20:19;;;;;;;5.50;2.47;;;27.70;83.70;;;;;;5051129;28;20074;-71
2022/03/10 05:22:51;;;;;;;5.13;1.90;;;27.80;80.70;;;;;;5055576;28;20028;-73
2022/03/10 05:25:20;;;;;;;7.72;2.22;;;27.50;81.50;;;;;;5054303;28;20032;-71
2022/03/10 05:27:48;;;;;;;7.45;2.10;;;27.20;81.60;;;;;;5051442;28;20021;-67
2022/03/10 05:30:16;;;;;;;4.70;1.92;;;27.00;82.90;;;;;;5053079;28;20050;-74
2022/03/10 05:32:44;;;;;;;7.55;1.95;;;27.10;82.60;;;;;;5053060;28;20468;-70
2022/03/10 05:35:16;;;;;;;6.00;1.67;;;26.80;82.50;;;;;;5047977;28;20032;-68
2022/03/10 05:37:44;;;;;;;7.82;2.53;;;26.70;82.40;;;;;;5039821;28;20044;-67
2022/03/10 05:40:13;;;;;;;5.78;1.65;;;27.00;82.40;;;;;;5057831;28;20041;-69
2022/03/10 05:42:42;;;;;;;2.78;1.60;;;27.30;81.80;;;;;;5036766;28;20462;-69
2022/03/10 05:45:10;;;;;;;5.32;1.90;;;27.30;80.90;;;;;;5058512;28;20032;-71
2022/03/10 05:47:38;;;;;;;6.72;1.83;;;27.50;81.20;;;;;;5059357;28;20533;-70
2022/03/10 05:50:06;;;;;;;4.22;1.48;;;27.00;82.40;;;;;;5055624;28;20021;-67
2022/03/10 05:52:33;;;;;;;7.18;1.83;;;26.80;82.70;;;;;;4703037;28;9999886;-72
2022/03/10 05:55:01;;;;;;;7.57;2.17;;;26.50;84.30;;;;;;5057770;28;20031;-72
2022/03/10 05:57:28;;;;;;;7.72;1.77;;;26.10;83.90;;;;;;5055841;28;20024;-69
2022/03/10 05:59:55;;;;;;;5.95;1.80;;;25.50;86.50;;;;;;5056136;28;20025;-69
2022/03/10 06:02:22;;;;;;;5.93;1.88;;;25.20;85.70;;;;;;5054868;28;20108;-69
2022/03/10 06:04:48;;;;;;;5.97;1.80;;;24.70;88.10;;;;;;5054333;28;20059;-67
2022/03/10 06:07:16;;;;;;;3.80;1.52;;;24.40;88.00;;;;;;5056357;28;20506;-73
2022/03/10 06:09:44;;;;;;;6.50;1.73;;;24.30;87.70;;;;;;5057180;28;20021;-74
2022/03/10 06:12:11;;;;;;;4.22;1.15;;;24.10;88.10;;;;;;5053335;28;20033;-69
2022/03/10 06:14:38;;;;;;;4.07;1.58;;;24.00;89.00;;;;;;5055136;28;20607;-69
2022/03/10 06:17:05;;;;;;;7.18;1.45;;;23.90;89.80;;;;;;5055921;28;20102;-74
2022/03/10 06:19:32;;;;;;;5.57;1.60;;;23.80;88.80;;;;;;5048184;28;20031;-70
2022/03/10 06:21:59;;;;;;;7.47;2.15;;;23.60;88.80;;;;;;5052500;28;20029;-69
2022/03/10 06:24:26;;;;;;;8.07;2.10;;;23.30;90.50;;;;;;5052848;28;20033;-68
2022/03/10 06:26:53;;;;;;;3.88;1.20;;;23.30;90.30;;;;;;5055350;28;20032;-69
2022/03/10 06:29:20;;;;;;;5.00;1.77;;;23.30;90.60;;;;;;5051849;28;20127;-70
2022/03/10 06:31:47;;;;;;;8.57;1.52;;;23.40;89.70;;;;;;5053794;28;20056;-70
2022/03/10 06:34:14;;;;;;;7.35;1.55;;;23.40;90.70;;;;;;5053971;28;20048;-69
2022/03/10 06:36:42;;;;;;;7.03;1.67;;;23.30;90.30;;;;;;5056587;28;20160;-70
2022/03/10 06:39:09;;;;;;;6.25;1.83;;;23.20;90.70;;;;;;5051139;28;20029;-70
2022/03/10 06:41:35;;;;;;;6.15;1.73;;;23.00;91.30;;;;;;5049093;28;20020;-70
2022/03/10 06:44:02;;;;;;;6.13;1.48;;;22.90;91.40;;;;;;5051693;28;20020;-69
2022/03/10 06:46:29;;;;;;;4.20;1.27;;;22.80;91.80;;;;;;5053166;28;20029;-69
2022/03/10 06:48:56;;;;;;;6.30;1.67;;;22.80;92.70;;;;;;5048523;28;20339;-69
2022/03/10 06:51:23;;;;;;;7.30;1.70;;;22.80;92.70;;;;;;5053419;28;20096;-68
2022/03/10 06:53:50;;;;;;;3.72;1.50;;;22.70;92.30;;;;;;4707433;28;10000435;-68
2022/03/10 06:56:17;;;;;;;6.30;1.63;;;22.60;92.20;;;;;;5058171;28;20033;-72
2022/03/10 06:58:44;;;;;;;4.78;1.63;;;22.40;92.90;;;;;;5058026;28;20429;-72
2022/03/10 07:01:11;;;;;;;5.13;1.45;;;22.10;93.20;;;;;;5057518;28;20025;-67
2022/03/10 07:03:39;;;;;;;4.90;1.33;;;22.00;94.20;;;;;;5053759;28;21028;-69
2022/03/10 07:06:06;;;;;;;5.78;1.70;;;21.90;94.10;;;;;;5054039;28;20456;-68
2022/03/10 07:08:33;;;;;;;6.80;1.77;;;21.90;94.50;;;;;;5054586;28;20020;-70
2022/03/10 07:11:00;;;;;;;6.45;1.92;;;21.90;94.40;;;;;;5057586;28;20024;-69
2022/03/10 07:13:27;;;;;;;5.32;1.52;;;21.80;94.80;;;;;;5056867;28;20026;-65
2022/03/10 07:15:54;;;;;;;2.78;1.10;;;21.70;95.20;;;;;;5053380;28;20163;-65
2022/03/10 07:18:21;;;;;;;5.30;1.45;;;21.50;95.10;;;;;;5055033;28;20089;-71
2022/03/10 07:20:48;;;;;;;6.32;1.80;;;21.40;95.20;;;;;;5052844;28;20126;-67
2022/03/10 07:23:15;;;;;;;7.22;1.35;;;21.40;96.00;;;;;;5056329;28;20031;-67
2022/03/10 07:25:43;;;;;;;4.55;1.50;;;21.40;95.90;;;;;;5054174;28;20044;-64
2022/03/10 07:28:10;;;;;;;5.38;1.45;;;21.30;96.60;;;;;;5055671;28;20043;-67
2022/03/10 07:30:37;;;;;;;8.18;1.63;;;21.20;97.30;;;;;;5055825;28;20879;-68
2022/03/10 07:33:04;;;;;;;4.93;1.35;;;21.30;97.70;;;;;;5057036;28;20435;-69
2022/03/10 07:35:31;;;;;;;8.63;1.80;;;21.40;97.50;;;;;;5056325;28;20029;-68
2022/03/10 07:37:59;;;;;;;6.80;1.70;;;21.30;97.70;;;;;;5056668;28;20048;-67
2022/03/10 07:40:27;;;;;;;8.00;1.65;;;21.20;98.50;;;;;;5055023;28;20519;-67
2022/03/10 07:42:54;;;;;;;7.20;2.70;;;21.10;98.10;;;;;;5058887;28;20051;-68
2022/03/10 07:45:21;;;;;;;5.10;2.08;;;21.10;98.50;;;;;;5051970;28;20025;-67
2022/03/10 07:47:48;;;;;;;7.80;1.60;;;21.10;98.50;;;;;;5054045;28;20514;-67
2022/03/10 07:50:15;;;;;;;5.80;1.50;;;21.10;99.10;;;;;;5052371;28;20079;-66
2022/03/10 07:52:42;;;;;;;5.15;1.52;;;21.00;98.70;;;;;;5055248;28;20159;-68
2022/03/10 07:55:13;;;;;;;4.75;1.30;;;20.90;98.90;;;;;;5054280;28;20029;-68
2022/03/10 07:57:41;;;;;;;4.80;1.50;;;20.80;99.70;;;;;;5052629;28;20290;-68
2022/03/10 08:00:09;;;;;;;5.40;1.65;;;20.80;99.80;;;;;;5056746;28;20017;-66
2022/03/10 08:02:36;;;;;;;6.57;1.80;;;20.90;99.90;;;;;;5053944;28;20023;-66
2022/03/10 08:05:05;;;;;;;5.07;1.70;;;20.90;99.50;;;;;;5052017;28;20510;-69
2022/03/10 08:07:35;;;;;;;3.40;1.38;;;20.90;99.60;;;;;;5049788;28;20547;-66
2022/03/10 08:10:06;;;;;;;8.75;1.52;;;20.80;99.40;;;;;;5057056;28;20035;-66
2022/03/10 08:12:34;;;;;;;5.95;1.52;;;20.70;98.90;;;;;;5049255;28;20071;-67
2022/03/10 08:15:03;;;;;;;5.68;1.95;;;20.70;99.20;;;;;;5057644;28;20133;-67
2022/03/10 08:17:30;;;;;;;4.43;1.50;;;20.60;99.20;;;;;;5048820;28;20020;-66
2022/03/10 08:19:57;;;;;;;5.60;1.20;;;20.60;99.60;;;;;;5052882;28;21421;-68
2022/03/10 08:22:27;;;;;;;7.35;1.88;;;20.70;99.60;;;;;;5050749;28;20029;-67
2022/03/10 08:24:54;;;;;;;6.70;1.60;;;20.60;99.60;;;;;;5052680;28;20112;-67
2022/03/10 08:27:21;;;;;;;4.82;1.52;;;20.50;99.30;;;;;;5049982;28;20127;-68
2022/03/10 08:29:48;;;;;;;4.10;1.17;;;20.50;99.90;;;;;;5032196;28;20093;-69
2022/03/10 08:32:16;;;;;;;8.07;1.80;;;20.50;99.90;;;;;;5051088;28;20078;-69
2022/03/10 08:34:43;;;;;;;4.22;1.50;;;20.50;99.90;;;;;;5047367;28;20851;-68
2022/03/10 08:37:10;;;;;;;2.40;1.05;;;20.50;99.80;;;;;;5050467;28;20066;-66
2022/03/10 08:39:36;;;;;;;4.22;1.25;;;20.40;99.90;;;;;;5032109;28;20036;-67
2022/03/10 08:42:04;;;;;;;4.25;1.10;;;20.40;99.90;;;;;;5049950;28;20245;-67
2022/03/10 08:44:31;;;;;;;2.80;1.50;;;20.50;99.90;;;;;;5052424;28;20024;-67
2022/03/10 08:46:58;;;;;;;3.42;1.10;;;20.50;99.90;;;;;;5050510;28;20434;-67
2022/03/10 08:49:25;;;;;;;3.15;1.08;;;20.50;99.90;;;;;;5051961;28;20020;-68
2022/03/10 08:51:52;;;;;;;5.65;1.17;;;20.40;99.90;;;;;;5044127;28;20051;-67
2022/03/10 08:54:19;;;;;;;5.75;1.30;;;20.50;99.90;;;;;;5051931;28;20037;-70
2022/03/10 08:56:47;;;;;;;2.15;0.82;;;20.40;99.90;;;;;;5047965;28;20039;-69
2022/03/10 08:59:14;;;;;;;4.75;0.70;;;20.30;99.90;;;;;;5051756;28;20133;-69
2022/03/10 09:01:41;;;;;;;5.35;1.17;;;20.20;99.90;;;;;;5047154;28;20128;-67
2022/03/10 09:04:08;;;;;;;2.53;0.70;;;20.30;99.90;;;;;;5049733;28;20087;-67
2022/03/10 09:06:35;;;;;;;2.85;0.75;;;20.30;99.90;;;;;;5036823;28;20044;-67
2022/03/10 09:09:03;;;;;;;5.90;1.67;;;20.30;99.90;;;;;;5047148;28;20112;-68
2022/03/10 09:11:30;;;;;;;3.00;1.45;;;20.40;99.90;;;;;;5044079;28;20029;-67
2022/03/10 09:13:59;;;;;;;4.28;1.08;;;20.40;99.90;;;;;;5052264;28;20066;-68
2022/03/10 09:16:27;;;;;;;3.95;1.02;;;20.40;99.90;;;;;;5054208;28;20380;-67
2022/03/10 09:18:54;;;;;;;4.57;1.13;;;20.40;99.90;;;;;;5053605;28;20063;-64
2022/03/10 09:21:21;;;;;;;4.70;1.05;;;20.30;99.90;;;;;;5052564;28;20095;-68
2022/03/10 09:23:48;;;;;;;2.72;0.82;;;20.30;99.90;;;;;;5051221;28;20417;-68
2022/03/10 09:26:15;;;;;;;3.92;0.90;;;20.40;99.90;;;;;;5056820;28;20032;-67
2022/03/10 09:28:43;;;;;;;3.85;1.10;;;20.30;99.90;;;;;;5052165;28;20035;-65
2022/03/10 09:31:12;;;;;;;5.55;1.42;;;20.30;99.90;;;;;;5058635;28;20508;-67
2022/03/10 09:33:42;;;;;;;4.63;1.10;;;20.20;99.90;;;;;;5053584;28;20383;-68
2022/03/10 09:36:09;;;;;;;3.35;1.00;;;20.30;99.90;;;;;;5052203;28;20039;-69
2022/03/10 09:38:36;;;;;;;4.88;1.35;;;20.30;99.90;;;;;;5053475;28;20540;-65
2022/03/10 09:41:03;;;;;;;5.95;1.90;;;20.40;99.90;;;;;;5049013;28;20029;-67
2022/03/10 09:43:32;;;;;;;5.05;1.30;;;20.30;99.90;;;;;;5051561;28;20024;-68
2022/03/10 09:46:00;;;;;;;3.80;1.02;;;20.30;99.90;;;;;;5054601;28;20020;-64
2022/03/10 09:48:27;;;;;;;5.83;1.20;;;20.30;99.90;;;;;;4704106;28;9999778;-68
2022/03/10 09:50:55;;;;;;;2.35;0.88;;;20.40;99.90;;;;;;5056618;28;20024;-69
2022/03/10 09:53:22;;;;;;;3.40;1.33;;;20.30;99.90;;;;;;5052417;28;20063;-68
2022/03/10 09:55:49;;;;;;;4.80;1.80;;;20.30;99.90;;;;;;5051684;28;20033;-66
2022/03/10 09:58:16;;;;;;;4.68;1.40;;;20.20;99.90;;;;;;5053708;28;20070;-65
2022/03/10 10:00:43;;;;;;;4.70;1.42;;;20.30;99.90;;;;;;5061151;28;20083;-66
2022/03/10 10:03:10;;;;;;;6.50;1.17;;;20.20;99.90;;;;;;5053348;28;20016;-65
2022/03/10 10:05:41;;;;;;;4.60;1.25;;;20.30;99.90;;;;;;5063117;28;20533;-67
2022/03/10 10:08:17;;;;;;;3.53;1.25;;;20.30;99.90;;;;;;5058606;28;20465;-64
2022/03/10 10:10:50;;;;;;;4.18;1.38;;;20.20;99.90;;;;;;5054050;28;20051;-65
2022/03/10 10:13:27;;;;;;;4.90;1.40;;;20.20;99.90;;;;;;5052588;28;20025;-67
2022/03/10 10:16:27;;;;;;;3.30;1.23;;;20.30;99.90;;;;;;5047404;28;20031;-67
2022/03/10 10:18:59;;;;;;;5.18;1.70;;;20.20;99.90;;;;;;4957940;28;20108;-65
2022/03/10 10:21:26;;;;;;;5.38;1.15;;;20.20;99.90;;;;;;4958216;28;20041;-65
2022/03/10 10:23:55;;;;;;;3.33;1.15;;;20.00;99.90;;;;;;4965379;28;20035;-66
2022/03/10 10:26:26;;;;;;;2.45;1.13;;;19.80;99.90;;;;;;4951014;28;20027;-66
2022/03/10 10:28:54;;;;;;;4.25;1.13;;;19.80;99.90;;;;;;4957560;28;20043;-67
2022/03/10 10:31:24;;;;;;;4.47;1.27;;;19.80;99.90;;;;;;4960707;28;20171;-66
2022/03/10 10:33:57;;;;;;;3.33;1.02;;;19.80;99.90;;;;;;4960045;28;20147;-68
2022/03/10 10:36:30;;;;;;;5.80;1.13;;;19.90;99.90;;;;;;4630380;23;10002039;-63
2022/03/10 10:39:12;;;;;;;4.35;1.10;;;19.90;99.90;;;;;;5006626;28;20026;-66
2022/03/10 10:41:40;;;;;;;4.03;1.50;;;19.80;99.90;;;;;;4983113;28;20845;-68
2022/03/10 10:44:12;;;;;;;4.45;1.23;;;19.60;99.90;;;;;;5013515;28;20060;-66
2022/03/10 10:46:40;;;;;;;8.38;1.30;;;19.40;99.90;;;;;;5019023;28;20017;-67
2022/03/10 10:49:18;;;;;;;7.20;1.63;;;19.40;99.90;;;;;;5010610;28;20518;-67
2022/03/10 10:52:10;;;;;;;4.25;2.13;;;19.50;99.90;;;;;;5013988;28;20247;-63
2022/03/10 10:54:37;;;;;;;7.47;2.53;;;19.50;99.90;;;;;;5008149;28;20076;-67
2022/03/10 10:57:09;;;;;;;4.90;1.70;;;19.50;99.90;;;;;;5011561;28;20029;-68
2022/03/10 10:59:38;;;;;;;3.58;1.38;;;19.40;99.90;;;;;;4996390;28;20120;-65
2022/03/10 11:02:18;;;;;;;2.83;1.13;;;19.30;99.90;;;;;;5019145;28;20048;-63
2022/03/10 11:04:51;;;;;;;7.45;1.60;;;19.40;99.90;;;;;;5008998;28;20022;-63
2022/03/10 11:07:19;;;;;;;4.28;1.13;;;19.40;99.90;;;;;;5016178;28;20208;-67
2022/03/10 11:09:47;;;;;;;9.85;2.00;;;19.40;99.90;;;;;;5019233;28;20037;-67
2022/03/10 11:12:17;;;;;;;3.17;1.42;;;19.50;99.90;;;;;;5014100;28;20025;-64
2022/03/10 11:14:46;;;;;;;4.90;1.45;;;19.40;99.90;;;;;;5007923;28;20034;-63
2022/03/10 11:17:15;;;;;;;8.35;2.00;;;19.30;99.90;;;;;;5023586;28;20021;-67
2022/03/10 11:19:46;;;;;;;5.45;1.52;;;19.30;99.90;;;;;;5020398;28;20036;-67
2022/03/10 11:22:48;;;;;;;6.47;1.60;;;19.40;99.90;;;;;;5016164;28;20064;-62
2022/03/10 11:25:24;;;;;;;6.60;1.20;;;19.30;99.90;;;;;;5015506;28;20192;-67
2022/03/10 11:28:12;;;;;;;5.03;1.50;;;19.20;99.90;;;;;;5019197;28;20030;-66
2022/03/10 11:30:40;;;;;;;4.20;1.65;;;19.30;99.90;;;;;;5015519;28;20044;-63
2022/03/10 11:33:17;;;;;;;5.82;1.90;;;19.20;99.90;;;;;;5015779;28;20022;-62
2022/03/10 11:35:48;;;;;;;3.55;1.45;;;19.20;99.90;;;;;;5015933;28;20040;-61
2022/03/10 11:38:16;;;;;;;5.50;1.55;;;19.00;99.90;;;;;;4972928;28;20058;-62
2022/03/10 11:40:45;;;;;;;6.55;1.73;;;19.00;99.90;;;;;;4972680;28;20559;-70
2022/03/10 11:43:18;;;;;;;5.43;1.67;;;19.10;99.90;;;;;;4977639;28;20029;-69
2022/03/10 11:45:46;;;;;;;11.27;1.92;;;19.10;99.90;;;;;;4972651;28;20034;-70
2022/03/10 11:48:28;;;;;;;5.70;1.42;;;19.00;99.90;;;;;;4976816;28;20026;-70
2022/03/10 11:50:56;;;;;;;9.50;1.90;;;18.90;99.90;;;;;;4969287;28;20078;-66
2022/03/10 11:53:23;;;;;;;5.85;1.80;;;18.70;99.90;;;;;;4976961;28;20572;-67
2022/03/10 11:55:53;;;;;;;5.45;1.65;;;18.70;99.90;;;;;;4975765;28;20023;-66
2022/03/10 11:58:30;;;;;;;4.00;1.50;;;18.60;99.90;;;;;;4974445;28;20030;-66
2022/03/10 12:01:02;;;;;;;5.07;1.45;;;18.40;99.90;;;;;;4969822;28;20018;-63
2022/03/10 12:03:37;;;;;;;4.32;1.38;;;18.30;99.90;;;;;;4969036;28;20015;-70
2022/03/10 12:06:07;;;;;;;4.88;1.92;;;18.20;99.90;;;;;;4969874;28;20035;-69
2022/03/10 12:08:42;;;;;;;3.95;1.33;;;18.20;99.90;;;;;;4969825;28;20528;-63
2022/03/10 12:11:15;;;;;;;6.47;1.92;;;18.10;99.90;;;;;;4969325;28;20089;-68
2022/03/10 12:13:47;;;;;;;4.53;1.50;;;18.00;99.90;;;;;;4976627;28;20034;-70
2022/03/10 12:16:26;;;;;;;4.88;1.60;;;18.00;99.90;;;;;;4969145;28;20027;-64
2022/03/10 12:18:54;;;;;;;10.45;1.95;;;18.10;99.90;;;;;;4971443;28;20110;-69
2022/03/10 12:21:26;;;;;;;9.20;1.50;;;18.10;99.90;;;;;;4979674;28;20096;-68
2022/03/10 12:23:56;;;;;;;5.72;2.20;;;18.10;99.90;;;;;;4977378;28;20038;-69
2022/03/10 12:26:27;;;;;;;5.38;1.77;;;18.00;99.90;;;;;;4973871;28;20050;-63
2022/03/10 12:29:08;;;;;;;7.82;2.03;;;18.00;99.90;;;;;;4978368;28;20098;-67
2022/03/10 12:31:37;;;;;;;5.35;1.83;;;17.90;99.90;;;;;;4975322;28;20133;-67
2022/03/10 12:34:13;;;;;;;6.20;1.55;;;17.80;99.90;;;;;;4972676;28;20031;-64
2022/03/10 12:36:49;;;;;;;9.07;2.13;;;17.80;99.90;;;;;;4993554;28;20057;-64
2022/03/10 12:39:16;;;;;;;6.30;1.60;;;17.80;99.90;;;;;;5017338;28;20795;-64
2022/03/10 12:41:48;;;;;;;6.90;1.65;;;17.90;99.90;;;;;;5018743;28;20025;-64
2022/03/10 12:44:21;;;;;;;4.55;1.70;;;18.00;99.90;;;;;;5018355;28;20065;-64
2022/03/10 12:46:50;;;;;;;4.55;1.50;;;18.00;99.90;;;;;;5015679;28;20060;-69
2022/03/10 12:49:25;;;;;;;6.53;1.55;;;18.10;99.90;;;;;;5014948;28;20029;-70
2022/03/10 12:51:57;;;;;;;6.32;1.40;;;18.20;99.90;;;;;;5022358;28;20029;-68
2022/03/10 12:54:25;;;;;;;5.68;1.42;;;18.20;99.90;;;;;;5017509;28;20024;-64
2022/03/10 12:57:00;;;;;;;7.50;1.42;;;18.40;99.90;;;;;;5021052;28;20113;-67